Time;durP1;ratioP1;P1;durP2;ratioP2;P2;SDS_P1;SDS_P2;PMS_P1;PMS_P2;Temp;Humidity;BMP_temperature;BMP_pressure;BME280_temperature;BME280_humidity;BME280_pressure;Samples;Min_cycle;Max_cycle;Signal;HPM_P1;HPM_P2
2023/04/30 00:00:50;;;;;;;20.52;12.60;;;9.60;68.90;;;;;;5053298;28;20460;-73
2023/04/30 00:03:16;;;;;;;19.13;12.30;;;9.70;68.10;;;;;;5053596;28;20389;-75
2023/04/30 00:05:41;;;;;;;24.17;13.77;;;9.60;68.00;;;;;;5053899;28;20411;-74
2023/04/30 00:08:07;;;;;;;26.33;13.50;;;9.60;69.10;;;;;;5054137;28;20421;-74
2023/04/30 00:10:33;;;;;;;18.63;12.80;;;9.50;69.60;;;;;;5053874;28;20405;-75
2023/04/30 00:12:58;;;;;;;24.67;13.80;;;9.50;69.00;;;;;;5052783;28;20443;-73
2023/04/30 00:15:24;;;;;;;21.33;13.67;;;9.50;69.80;;;;;;5053072;28;20536;-73
2023/04/30 00:17:49;;;;;;;21.75;13.02;;;9.50;70.10;;;;;;5053088;28;20738;-73
2023/04/30 00:20:15;;;;;;;23.15;13.52;;;9.40;70.90;;;;;;5053368;28;20472;-73
2023/04/30 00:22:41;;;;;;;19.63;11.60;;;9.40;71.20;;;;;;5052828;28;20434;-73
2023/04/30 00:25:06;;;;;;;24.70;13.32;;;9.40;70.60;;;;;;5053445;28;20409;-73
2023/04/30 00:27:32;;;;;;;20.52;12.02;;;9.40;71.80;;;;;;5054015;28;20369;-74
2023/04/30 00:29:58;;;;;;;18.80;12.60;;;9.40;71.20;;;;;;5058262;28;20374;-74
2023/04/30 00:32:23;;;;;;;23.63;13.97;;;9.30;72.00;;;;;;5059250;28;20469;-73
2023/04/30 00:34:49;;;;;;;19.63;12.77;;;9.20;73.40;;;;;;5059434;28;20412;-73
2023/04/30 00:37:14;;;;;;;20.90;13.10;;;9.30;73.50;;;;;;5053140;28;20378;-72
2023/04/30 00:39:40;;;;;;;20.10;12.07;;;9.30;73.40;;;;;;5053194;28;20980;-73
2023/04/30 00:42:05;;;;;;;21.90;13.20;;;9.30;73.20;;;;;;5052397;28;20421;-73
2023/04/30 00:44:31;;;;;;;18.90;12.93;;;9.20;73.90;;;;;;5053146;28;20766;-74
2023/04/30 00:46:56;;;;;;;20.10;12.37;;;9.20;74.30;;;;;;5053126;28;20901;-73
2023/04/30 00:49:22;;;;;;;19.37;13.23;;;9.20;74.40;;;;;;5052799;28;20399;-73
2023/04/30 00:51:49;;;;;;;25.80;13.90;;;9.20;74.90;;;;;;5052322;28;20466;-74
2023/04/30 00:54:15;;;;;;;23.10;13.50;;;9.10;76.40;;;;;;5035498;28;20463;-74
2023/04/30 00:56:41;;;;;;;19.88;12.70;;;9.10;76.10;;;;;;5052744;28;20415;-73
2023/04/30 00:59:07;;;;;;;23.70;13.38;;;9.10;76.60;;;;;;5034886;28;20387;-73
2023/04/30 01:01:32;;;;;;;21.80;13.88;;;9.10;76.60;;;;;;5052088;28;20382;-74
2023/04/30 01:03:59;;;;;;;22.03;13.40;;;9.10;76.70;;;;;;5052866;28;20376;-73
2023/04/30 01:06:26;;;;;;;21.92;13.35;;;9.00;78.20;;;;;;5052342;28;20820;-74
2023/04/30 01:08:52;;;;;;;21.52;13.38;;;9.00;78.20;;;;;;5052411;28;20377;-72
2023/04/30 01:11:31;;;;;;;18.10;13.30;;;9.00;78.10;;;;;;5051565;28;20386;-74
2023/04/30 01:14:07;;;;;;;26.63;14.65;;;9.00;78.40;;;;;;5052061;28;20389;-75
2023/04/30 01:16:38;;;;;;;23.55;14.00;;;8.90;79.20;;;;;;5051860;28;20778;-73
2023/04/30 01:19:10;;;;;;;21.83;14.02;;;8.90;78.90;;;;;;5052170;28;20388;-73
2023/04/30 01:21:40;;;;;;;23.42;14.43;;;8.90;79.70;;;;;;5051223;28;20451;-73
2023/04/30 01:24:36;;;;;;;23.20;13.93;;;8.90;80.00;;;;;;5051667;28;20397;-73
2023/04/30 01:27:29;;;;;;;26.92;15.15;;;8.80;81.10;;;;;;5051608;28;20477;-73
2023/04/30 01:29:56;;;;;;;27.58;17.00;;;8.80;83.00;;;;;;5051723;28;20395;-73
2023/04/30 01:32:22;;;;;;;22.30;15.63;;;8.70;84.00;;;;;;5050804;28;20393;-74
2023/04/30 01:34:47;;;;;;;25.20;15.13;;;8.70;84.30;;;;;;5051747;28;20391;-73
2023/04/30 01:37:44;;;;;;;25.67;16.07;;;8.60;85.60;;;;;;5051513;28;20416;-74
2023/04/30 01:40:28;;;;;;;25.45;16.17;;;8.50;85.50;;;;;;5051250;28;20385;-72
2023/04/30 01:43:10;;;;;;;28.35;17.35;;;8.20;89.40;;;;;;5050640;28;20377;-74
2023/04/30 01:46:07;;;;;;;27.35;17.80;;;7.90;94.20;;;;;;5051050;28;20431;-74
2023/04/30 01:49:02;;;;;;;27.30;18.53;;;8.00;98.00;;;;;;5050840;28;20477;-74
2023/04/30 01:51:44;;;;;;;27.60;17.40;;;8.00;98.10;;;;;;5056249;28;20407;-73
2023/04/30 01:54:30;;;;;;;28.77;17.10;;;8.10;97.40;;;;;;5067544;28;20384;-73
2023/04/30 01:57:06;;;;;;;26.40;16.60;;;8.30;94.10;;;;;;5053963;28;20376;-74
2023/04/30 01:59:37;;;;;;;23.45;16.27;;;8.50;90.80;;;;;;5051422;28;20413;-74
2023/04/30 02:02:02;;;;;;;26.38;16.40;;;8.40;89.00;;;;;;5032752;28;20463;-74
2023/04/30 02:04:28;;;;;;;28.30;16.52;;;8.40;87.50;;;;;;5051348;28;20460;-74
2023/04/30 02:06:53;;;;;;;23.10;15.33;;;8.50;88.70;;;;;;5050916;28;20377;-74
2023/04/30 02:09:19;;;;;;;21.17;14.50;;;8.50;86.90;;;;;;5050849;28;20472;-73
2023/04/30 02:11:44;;;;;;;24.73;16.60;;;8.60;85.10;;;;;;5050149;28;20385;-73
2023/04/30 02:14:10;;;;;;;26.27;15.40;;;8.60;84.90;;;;;;5050810;28;20374;-73
2023/04/30 02:16:36;;;;;;;24.52;16.10;;;8.60;85.00;;;;;;5052971;28;20382;-73
2023/04/30 02:19:01;;;;;;;25.65;16.00;;;8.60;84.40;;;;;;5035603;28;20381;-73
2023/04/30 02:21:27;;;;;;;24.25;14.30;;;8.60;84.20;;;;;;5052465;28;20417;-73
2023/04/30 02:23:53;;;;;;;25.92;15.20;;;8.60;83.50;;;;;;5055328;28;20382;-73
2023/04/30 02:26:20;;;;;;;23.40;15.30;;;8.60;83.30;;;;;;5050332;28;20459;-73
2023/04/30 02:28:45;;;;;;;27.33;16.10;;;8.50;84.50;;;;;;5050422;28;20400;-73
2023/04/30 02:31:11;;;;;;;28.27;15.90;;;8.50;85.50;;;;;;5050141;28;20922;-73
2023/04/30 02:33:36;;;;;;;28.70;16.23;;;8.50;86.00;;;;;;5053305;28;20465;-73
2023/04/30 02:36:02;;;;;;;31.60;17.23;;;8.50;87.00;;;;;;5055340;28;20392;-73
2023/04/30 02:38:27;;;;;;;24.45;15.10;;;8.40;87.10;;;;;;5059068;28;20465;-74
2023/04/30 02:40:53;;;;;;;30.88;16.50;;;8.40;86.70;;;;;;5054022;28;20386;-74
2023/04/30 02:43:19;;;;;;;26.92;15.70;;;8.40;88.30;;;;;;5054001;28;20519;-74
2023/04/30 02:45:44;;;;;;;28.25;17.20;;;8.30;89.00;;;;;;5050948;28;20535;-74
2023/04/30 02:48:10;;;;;;;27.13;17.17;;;8.30;89.60;;;;;;5050246;28;20378;-75
2023/04/30 02:50:35;;;;;;;25.40;16.30;;;8.30;90.00;;;;;;5050346;28;20852;-74
2023/04/30 02:53:01;;;;;;;24.88;16.65;;;8.30;90.10;;;;;;5049810;28;20386;-74
2023/04/30 02:55:27;;;;;;;27.48;17.60;;;8.30;90.20;;;;;;5050221;28;20420;-74
2023/04/30 02:57:52;;;;;;;28.85;17.90;;;8.20;91.40;;;;;;5053930;28;20484;-74
2023/04/30 03:00:18;;;;;;;33.60;19.70;;;8.10;93.20;;;;;;5036205;28;20849;-73
2023/04/30 03:02:44;;;;;;;32.43;19.87;;;8.10;95.20;;;;;;5053186;28;20474;-73
2023/04/30 03:05:10;;;;;;;32.33;19.20;;;7.90;96.50;;;;;;5050233;28;20968;-73
2023/04/30 03:07:35;;;;;;;30.05;18.10;;;7.70;99.30;;;;;;5074979;28;20709;-77
2023/04/30 03:10:01;;;;;;;34.05;19.13;;;7.60;99.90;;;;;;5075121;28;20386;-76
2023/04/30 03:12:27;;;;;;;27.33;17.27;;;7.70;99.60;;;;;;5073648;28;20756;-73
2023/04/30 03:14:52;;;;;;;27.73;17.67;;;7.80;96.10;;;;;;5074028;28;20468;-73
2023/04/30 03:17:18;;;;;;;33.30;20.43;;;7.80;94.50;;;;;;5057286;28;20401;-73
2023/04/30 03:19:43;;;;;;;32.97;18.60;;;7.70;95.80;;;;;;5055547;28;20397;-74
2023/04/30 03:22:10;;;;;;;28.92;18.88;;;7.60;95.80;;;;;;5054094;28;20496;-74
2023/04/30 03:24:35;;;;;;;29.40;18.30;;;7.50;98.30;;;;;;5054844;28;20401;-75
2023/04/30 03:27:01;;;;;;;31.80;17.00;;;7.60;99.10;;;;;;5037055;28;20394;-75
2023/04/30 03:29:26;;;;;;;26.77;17.67;;;7.60;96.40;;;;;;5059333;28;20384;-74
2023/04/30 03:31:52;;;;;;;29.63;17.37;;;7.70;95.20;;;;;;5055214;28;20396;-74
2023/04/30 03:34:17;;;;;;;30.40;18.50;;;7.60;95.70;;;;;;5056341;28;20467;-75
2023/04/30 03:36:43;;;;;;;33.60;18.88;;;7.50;98.00;;;;;;5053742;28;20386;-73
2023/04/30 03:39:08;;;;;;;26.30;17.27;;;7.50;96.90;;;;;;5053385;28;20776;-74
2023/04/30 03:41:34;;;;;;;29.33;17.90;;;7.50;97.40;;;;;;5052823;28;20738;-74
2023/04/30 03:44:00;;;;;;;30.92;18.13;;;7.50;97.30;;;;;;5053479;28;20399;-73
2023/04/30 03:46:26;;;;;;;30.02;19.48;;;7.30;99.00;;;;;;5053112;28;20471;-74
2023/04/30 03:48:52;;;;;;;31.97;19.23;;;7.30;99.90;;;;;;5053230;28;20489;-73
2023/04/30 03:51:20;;;;;;;31.07;19.03;;;7.20;99.90;;;;;;5052609;28;20420;-75
2023/04/30 03:53:46;;;;;;;35.88;21.27;;;6.90;99.90;;;;;;5053016;28;20915;-74
2023/04/30 03:56:12;;;;;;;33.63;20.90;;;6.70;99.90;;;;;;5052865;28;20397;-75
2023/04/30 03:58:38;;;;;;;34.57;21.30;;;6.60;99.90;;;;;;5052838;28;20416;-74
2023/04/30 04:01:04;;;;;;;38.17;23.90;;;6.50;99.90;;;;;;5052401;28;20390;-75
2023/04/30 04:03:30;;;;;;;35.95;21.83;;;6.40;99.90;;;;;;5052827;28;20905;-75
2023/04/30 04:05:55;;;;;;;37.70;22.30;;;6.60;99.90;;;;;;5052988;28;20442;-74
2023/04/30 04:08:21;;;;;;;38.33;21.17;;;6.70;99.90;;;;;;5051701;28;20386;-74
2023/04/30 04:10:46;;;;;;;33.07;21.80;;;6.80;99.90;;;;;;5052970;28;20417;-75
2023/04/30 04:13:12;;;;;;;35.97;21.50;;;6.70;99.90;;;;;;5052635;28;20943;-75
2023/04/30 04:15:37;;;;;;;36.20;22.00;;;6.50;99.90;;;;;;5052833;28;20885;-75
2023/04/30 04:18:03;;;;;;;38.87;22.97;;;6.40;99.90;;;;;;5034716;28;20402;-74
2023/04/30 04:20:29;;;;;;;37.57;23.73;;;6.30;99.90;;;;;;5035646;28;20477;-75
2023/04/30 04:22:55;;;;;;;36.30;22.20;;;6.30;99.90;;;;;;5053141;28;20386;-75
2023/04/30 04:25:23;;;;;;;32.35;21.60;;;6.60;99.90;;;;;;5052688;28;20828;-74
2023/04/30 04:27:49;;;;;;;33.05;21.45;;;6.60;99.90;;;;;;5052475;28;20833;-75
2023/04/30 04:30:15;;;;;;;34.30;22.20;;;6.50;99.90;;;;;;5052671;28;20491;-75
2023/04/30 04:32:45;;;;;;;35.72;22.77;;;6.30;99.90;;;;;;5034279;28;20472;-74
2023/04/30 04:35:12;;;;;;;45.35;23.70;;;6.40;99.90;;;;;;5055787;28;20397;-75
2023/04/30 04:37:37;;;;;;;39.15;22.00;;;6.60;99.90;;;;;;5054977;28;20428;-74
2023/04/30 04:40:04;;;;;;;37.03;21.67;;;6.80;99.90;;;;;;5053822;28;20377;-75
2023/04/30 04:42:29;;;;;;;36.80;23.55;;;6.80;99.90;;;;;;5051806;28;20385;-75
2023/04/30 04:44:55;;;;;;;32.03;20.98;;;7.00;99.90;;;;;;5052587;28;20404;-75
2023/04/30 04:47:21;;;;;;;32.67;21.10;;;7.20;99.90;;;;;;5054662;28;20388;-75
2023/04/30 04:49:47;;;;;;;34.85;21.90;;;7.20;98.80;;;;;;5053591;28;20516;-76
2023/04/30 04:52:12;;;;;;;38.88;22.00;;;6.90;99.60;;;;;;5039516;28;20421;-74
2023/04/30 04:54:38;;;;;;;37.08;23.08;;;6.80;99.90;;;;;;5062044;28;20377;-76
2023/04/30 04:57:03;;;;;;;37.67;22.83;;;6.70;99.90;;;;;;5063466;28;20382;-73
2023/04/30 04:59:29;;;;;;;36.77;21.67;;;7.00;99.90;;;;;;5062976;28;20412;-74
2023/04/30 05:01:55;;;;;;;35.13;21.33;;;7.10;99.90;;;;;;5062340;28;20468;-75
2023/04/30 05:04:20;;;;;;;35.17;20.13;;;7.30;99.90;;;;;;5043496;28;20386;-76
2023/04/30 05:06:46;;;;;;;31.02;19.80;;;7.60;99.00;;;;;;5058495;28;20393;-75
2023/04/30 05:09:12;;;;;;;37.60;21.10;;;7.80;95.50;;;;;;5053108;28;20373;-76
2023/04/30 05:11:37;;;;;;;30.10;20.57;;;7.70;96.20;;;;;;5052273;28;20503;-75
2023/04/30 05:14:03;;;;;;;33.67;20.27;;;7.90;94.30;;;;;;5052301;28;20377;-75
2023/04/30 05:16:29;;;;;;;30.53;20.40;;;8.00;92.40;;;;;;5051611;28;20877;-75
2023/04/30 05:18:54;;;;;;;29.70;21.30;;;8.00;92.50;;;;;;5051551;28;20996;-74
2023/04/30 05:21:20;;;;;;;29.90;19.77;;;8.00;93.70;;;;;;5033228;28;20900;-73
2023/04/30 05:23:46;;;;;;;32.73;21.77;;;8.10;92.50;;;;;;5051730;28;20467;-74
2023/04/30 05:26:11;;;;;;;29.73;20.13;;;8.10;92.50;;;;;;5051541;28;20918;-75
2023/04/30 05:28:37;;;;;;;28.43;19.47;;;8.20;89.90;;;;;;5033474;28;20469;-76
2023/04/30 05:31:03;;;;;;;36.37;20.50;;;8.30;88.40;;;;;;5032943;28;20472;-75
2023/04/30 05:33:28;;;;;;;35.23;19.93;;;8.30;87.80;;;;;;5062691;28;20772;-74
2023/04/30 05:35:54;;;;;;;35.23;20.57;;;8.40;88.60;;;;;;5064048;28;20393;-75
2023/04/30 05:38:19;;;;;;;30.27;19.93;;;8.50;85.60;;;;;;5057366;28;20377;-75
2023/04/30 05:40:45;;;;;;;30.83;19.23;;;8.60;85.70;;;;;;5051924;28;20389;-75
2023/04/30 05:43:11;;;;;;;30.53;19.90;;;8.50;87.00;;;;;;5050920;28;20448;-74
2023/04/30 05:45:36;;;;;;;29.73;18.97;;;8.50;89.90;;;;;;5050951;28;20406;-75
2023/04/30 05:48:02;;;;;;;33.07;20.23;;;8.70;85.80;;;;;;5033325;28;20389;-74
2023/04/30 05:50:27;;;;;;;27.57;18.63;;;8.90;82.70;;;;;;5051036;28;20393;-75
2023/04/30 05:52:53;;;;;;;31.10;19.20;;;9.10;79.30;;;;;;5050518;28;20925;-74
2023/04/30 05:55:18;;;;;;;32.03;19.53;;;9.10;78.70;;;;;;5051139;28;20389;-75
2023/04/30 05:57:44;;;;;;;26.10;18.00;;;9.30;75.60;;;;;;5050967;28;20923;-75
2023/04/30 06:00:11;;;;;;;30.63;17.47;;;9.30;75.00;;;;;;5051163;28;20412;-75
2023/04/30 06:02:36;;;;;;;29.88;18.80;;;9.30;75.50;;;;;;5050562;28;20393;-75
2023/04/30 06:05:02;;;;;;;30.27;19.60;;;9.30;75.40;;;;;;5032812;28;20778;-75
2023/04/30 06:07:28;;;;;;;27.80;18.90;;;9.40;75.30;;;;;;5050634;28;20408;-74
2023/04/30 06:09:53;;;;;;;28.80;17.53;;;9.50;74.50;;;;;;5051105;28;20441;-74
2023/04/30 06:12:19;;;;;;;28.77;18.10;;;9.60;74.20;;;;;;5032302;28;20389;-74
2023/04/30 06:14:45;;;;;;;27.37;17.37;;;9.60;74.10;;;;;;5051786;28;20445;-76
2023/04/30 06:17:11;;;;;;;29.43;17.87;;;9.80;72.60;;;;;;5051039;28;20398;-75
2023/04/30 06:19:37;;;;;;;26.92;18.60;;;9.80;72.90;;;;;;5050657;28;20454;-74
2023/04/30 06:22:03;;;;;;;31.35;19.63;;;9.80;74.40;;;;;;5032307;28;20412;-75
2023/04/30 06:24:29;;;;;;;27.63;18.10;;;9.90;76.50;;;;;;5050812;28;20384;-75
2023/04/30 06:26:55;;;;;;;25.47;17.07;;;10.10;71.70;;;;;;5051148;28;20478;-74
2023/04/30 06:29:23;;;;;;;25.07;16.77;;;10.30;68.10;;;;;;5050763;28;20381;-76
2023/04/30 06:31:49;;;;;;;25.80;17.73;;;10.50;67.40;;;;;;5049481;28;20381;-76
2023/04/30 06:34:15;;;;;;;30.60;18.57;;;10.70;64.50;;;;;;5032885;28;20482;-74
2023/04/30 06:36:40;;;;;;;27.17;17.00;;;10.80;65.50;;;;;;5032826;28;20390;-73
2023/04/30 06:39:06;;;;;;;24.23;16.13;;;10.90;64.90;;;;;;5032956;28;20417;-72
2023/04/30 06:41:31;;;;;;;20.57;15.60;;;11.00;62.20;;;;;;5050362;28;20385;-74
2023/04/30 06:43:57;;;;;;;23.63;15.80;;;11.10;59.70;;;;;;5051843;28;20421;-75
2023/04/30 06:46:23;;;;;;;27.47;15.83;;;11.20;57.70;;;;;;5058027;28;20534;-75
2023/04/30 06:48:48;;;;;;;23.38;15.60;;;11.20;59.40;;;;;;5060019;28;20382;-75
2023/04/30 06:51:14;;;;;;;22.35;15.02;;;11.30;59.30;;;;;;5051415;28;20378;-75
2023/04/30 06:53:40;;;;;;;22.17;15.88;;;11.40;57.00;;;;;;5051413;28;20377;-74
2023/04/30 06:56:06;;;;;;;26.33;16.30;;;11.40;56.50;;;;;;5051190;28;20511;-74
2023/04/30 06:58:31;;;;;;;23.27;15.50;;;11.40;55.50;;;;;;5050612;28;20456;-74
2023/04/30 07:00:57;;;;;;;22.30;15.00;;;11.40;57.70;;;;;;5049535;28;20396;-75
2023/04/30 07:03:22;;;;;;;26.27;14.53;;;11.40;56.70;;;;;;5050472;28;20385;-75
2023/04/30 07:05:50;;;;;;;20.87;15.47;;;11.50;56.90;;;;;;5050417;28;20436;-74
2023/04/30 07:08:16;;;;;;;23.00;15.40;;;11.50;55.30;;;;;;5050319;28;20942;-76
2023/04/30 07:10:41;;;;;;;22.17;15.53;;;11.60;58.10;;;;;;5050606;28;20460;-74
2023/04/30 07:13:07;;;;;;;22.90;14.97;;;11.70;56.90;;;;;;5049789;28;20377;-74
2023/04/30 07:15:33;;;;;;;20.93;15.07;;;11.90;57.10;;;;;;5050284;28;20385;-74
2023/04/30 07:17:58;;;;;;;22.93;14.63;;;12.10;53.10;;;;;;5050142;28;20889;-75
2023/04/30 07:20:24;;;;;;;23.63;14.90;;;12.30;50.40;;;;;;5050032;28;20791;-76
2023/04/30 07:22:50;;;;;;;22.83;14.00;;;12.40;52.10;;;;;;5031558;28;20416;-74
2023/04/30 07:25:15;;;;;;;17.33;12.87;;;12.50;50.60;;;;;;5050008;28;20516;-74
2023/04/30 07:27:41;;;;;;;15.23;11.70;;;12.70;45.60;;;;;;5050033;28;20388;-75
2023/04/30 07:30:09;;;;;;;19.27;12.57;;;12.80;43.60;;;;;;5052183;28;20882;-73
2023/04/30 07:32:35;;;;;;;18.40;12.50;;;12.80;43.70;;;;;;5049830;28;20385;-75
2023/04/30 07:35:00;;;;;;;22.35;13.00;;;12.70;43.90;;;;;;5032538;28;20405;-75
2023/04/30 07:37:26;;;;;;;18.20;11.60;;;12.80;44.70;;;;;;5050204;28;20413;-75
2023/04/30 07:39:52;;;;;;;18.07;12.40;;;12.90;42.70;;;;;;5049910;28;20386;-76
2023/04/30 07:42:17;;;;;;;17.20;11.40;;;13.00;42.30;;;;;;5051274;28;20385;-73
2023/04/30 07:44:43;;;;;;;18.67;12.30;;;13.00;41.60;;;;;;5053341;28;20550;-75
2023/04/30 07:47:09;;;;;;;18.23;12.37;;;13.00;41.90;;;;;;5053441;28;20538;-76
2023/04/30 07:49:34;;;;;;;16.47;11.73;;;13.00;42.80;;;;;;5035642;28;20382;-73
2023/04/30 07:52:00;;;;;;;20.87;12.67;;;13.10;41.90;;;;;;5052942;28;20524;-74
2023/04/30 07:54:26;;;;;;;19.23;11.43;;;13.10;41.70;;;;;;5053562;28;20901;-75
2023/04/30 07:56:52;;;;;;;16.90;11.75;;;13.20;40.70;;;;;;5053931;28;20389;-73
2023/04/30 07:59:17;;;;;;;17.95;12.30;;;13.20;42.10;;;;;;5067552;28;20413;-75
2023/04/30 08:01:43;;;;;;;19.13;12.17;;;13.30;41.50;;;;;;5068597;28;20415;-74
2023/04/30 08:04:09;;;;;;;16.58;10.52;;;13.50;39.70;;;;;;5055870;28;20385;-75
2023/04/30 08:06:34;;;;;;;18.92;12.00;;;13.40;39.40;;;;;;5053089;28;20405;-75
2023/04/30 08:09:00;;;;;;;16.60;11.30;;;13.50;39.80;;;;;;5053097;28;20385;-73
2023/04/30 08:11:26;;;;;;;15.00;11.03;;;13.50;38.90;;;;;;5052254;28;20389;-75
2023/04/30 08:13:51;;;;;;;14.87;10.50;;;13.60;39.60;;;;;;5035260;28;20385;-76
2023/04/30 08:16:17;;;;;;;19.07;10.87;;;13.70;37.80;;;;;;5053275;28;20735;-75
2023/04/30 08:18:45;;;;;;;15.23;10.60;;;13.70;37.10;;;;;;5053016;28;20397;-74
2023/04/30 08:21:14;;;;;;;16.10;10.70;;;13.70;37.50;;;;;;5052607;28;20743;-74
2023/04/30 08:23:39;;;;;;;12.68;9.70;;;13.80;37.40;;;;;;5053381;28;20381;-75
2023/04/30 08:26:05;;;;;;;13.30;8.80;;;14.00;35.00;;;;;;5052631;28;20424;-73
2023/04/30 08:28:31;;;;;;;13.80;9.70;;;14.00;35.80;;;;;;5034753;28;20386;-73
2023/04/30 08:30:56;;;;;;;14.17;8.60;;;14.00;33.70;;;;;;5052083;28;20951;-75
2023/04/30 08:33:22;;;;;;;12.53;8.13;;;14.10;32.50;;;;;;5034618;28;20400;-74
2023/04/30 08:35:47;;;;;;;11.80;8.50;;;14.20;32.80;;;;;;5052849;28;20474;-75
2023/04/30 08:38:13;;;;;;;10.77;7.43;;;14.40;33.40;;;;;;5053605;28;20966;-75
2023/04/30 08:40:39;;;;;;;11.57;7.50;;;14.40;30.30;;;;;;5053766;28;20413;-76
2023/04/30 08:43:07;;;;;;;8.10;5.60;;;14.30;29.10;;;;;;5052736;28;20389;-75
2023/04/30 08:45:33;;;;;;;10.15;6.60;;;14.30;29.00;;;;;;5053240;28;20405;-74
2023/04/30 08:48:00;;;;;;;7.70;5.75;;;14.40;31.50;;;;;;5052941;28;20373;-75
2023/04/30 08:50:26;;;;;;;7.25;4.25;;;14.60;27.50;;;;;;5060996;28;20403;-74
2023/04/30 08:52:52;;;;;;;6.57;4.90;;;14.60;26.10;;;;;;5041806;28;20392;-74
2023/04/30 08:55:17;;;;;;;9.43;6.70;;;14.70;27.10;;;;;;5058059;28;20389;-75
2023/04/30 08:57:43;;;;;;;10.98;6.20;;;14.80;28.90;;;;;;5056973;28;20902;-74
2023/04/30 09:00:09;;;;;;;8.07;5.60;;;15.00;29.90;;;;;;5052472;28;20385;-74
2023/04/30 09:02:40;;;;;;;6.95;5.00;;;15.10;26.70;;;;;;5051603;28;20395;-75
2023/04/30 09:05:11;;;;;;;8.38;4.55;;;15.20;26.60;;;;;;5052452;28;20492;-76
2023/04/30 09:07:41;;;;;;;8.80;5.20;;;15.30;25.20;;;;;;5052582;28;20465;-76
2023/04/30 09:10:21;;;;;;;5.60;4.60;;;15.30;25.40;;;;;;5051224;28;20540;-74
2023/04/30 09:13:04;;;;;;;7.10;4.65;;;15.40;25.90;;;;;;5055146;28;20396;-75
2023/04/30 09:15:30;;;;;;;6.22;4.30;;;15.30;23.90;;;;;;5039253;28;20386;-75
2023/04/30 09:18:16;;;;;;;8.70;5.00;;;15.20;25.50;;;;;;5057954;28;20758;-74
2023/04/30 09:21:04;;;;;;;6.63;5.10;;;15.20;25.50;;;;;;5057572;28;20399;-75
2023/04/30 09:23:30;;;;;;;7.40;5.88;;;15.20;25.90;;;;;;5058101;28;20392;-74
2023/04/30 09:25:56;;;;;;;10.55;5.65;;;15.30;24.90;;;;;;5057437;28;20448;-74
2023/04/30 09:28:24;;;;;;;10.10;6.65;;;15.30;24.90;;;;;;5055195;28;20388;-74
2023/04/30 09:30:50;;;;;;;15.10;6.32;;;15.30;26.40;;;;;;5058580;28;20445;-74
2023/04/30 09:33:16;;;;;;;9.63;6.32;;;15.40;26.20;;;;;;5059080;28;20377;-76
2023/04/30 09:35:42;;;;;;;9.30;6.40;;;15.50;25.60;;;;;;5058291;28;20386;-75
2023/04/30 09:38:24;;;;;;;10.35;6.63;;;15.70;25.80;;;;;;5058617;28;20396;-76
2023/04/30 09:40:49;;;;;;;9.20;6.10;;;15.80;26.50;;;;;;5059577;28;20425;-75
2023/04/30 09:43:15;;;;;;;8.20;6.00;;;16.00;24.10;;;;;;5056884;28;20432;-76
2023/04/30 09:45:50;;;;;;;7.00;5.38;;;16.10;25.50;;;;;;5057472;28;20415;-73
2023/04/30 09:48:22;;;;;;;8.52;5.20;;;16.00;25.00;;;;;;5056353;28;20428;-74
2023/04/30 09:50:49;;;;;;;8.25;5.88;;;16.10;25.10;;;;;;5053574;28;20382;-75
2023/04/30 09:53:18;;;;;;;8.77;5.80;;;16.20;24.50;;;;;;5053262;28;20916;-74
2023/04/30 09:55:46;;;;;;;7.03;5.28;;;16.00;25.40;;;;;;5054096;28;20396;-76
2023/04/30 09:58:12;;;;;;;9.25;5.80;;;16.00;24.20;;;;;;5053992;28;20382;-74
2023/04/30 10:00:39;;;;;;;10.10;5.95;;;16.00;25.10;;;;;;5035385;28;20417;-74
2023/04/30 10:03:09;;;;;;;7.22;5.40;;;16.10;24.10;;;;;;5052943;28;20393;-75
2023/04/30 10:05:46;;;;;;;7.82;5.68;;;16.10;25.40;;;;;;5054113;28;20401;-74
2023/04/30 10:08:26;;;;;;;9.70;6.00;;;16.30;26.10;;;;;;5053983;28;20720;-75
2023/04/30 10:10:59;;;;;;;8.50;5.53;;;16.40;24.20;;;;;;5052956;28;20408;-76
2023/04/30 10:13:26;;;;;;;11.95;5.75;;;16.70;23.70;;;;;;5054030;28;20798;-75
2023/04/30 10:15:55;;;;;;;13.45;5.85;;;16.90;23.90;;;;;;5052587;28;20742;-75
2023/04/30 10:18:27;;;;;;;6.00;4.80;;;17.10;23.20;;;;;;5051214;28;20598;-75
2023/04/30 10:20:55;;;;;;;5.25;4.07;;;17.20;20.90;;;;;;5051133;28;20412;-76
2023/04/30 10:23:21;;;;;;;6.38;4.40;;;17.20;20.20;;;;;;5052274;28;20388;-75
2023/04/30 10:25:48;;;;;;;5.20;3.95;;;17.10;20.00;;;;;;5053570;28;20455;-74
2023/04/30 10:28:14;;;;;;;9.75;4.38;;;17.10;19.60;;;;;;5055228;28;20385;-75
2023/04/30 10:30:42;;;;;;;7.78;5.43;;;17.00;21.60;;;;;;5063633;28;20369;-73
2023/04/30 10:33:14;;;;;;;8.50;4.90;;;17.00;22.20;;;;;;5061910;28;20740;-74
2023/04/30 10:35:57;;;;;;;5.68;4.10;;;17.20;21.00;;;;;;5051167;28;20468;-75
2023/04/30 10:38:35;;;;;;;7.00;4.00;;;17.30;19.80;;;;;;5033225;28;20890;-76
2023/04/30 10:41:01;;;;;;;5.32;4.65;;;17.40;19.90;;;;;;5050397;28;20516;-74
2023/04/30 10:43:29;;;;;;;8.65;4.75;;;17.50;19.70;;;;;;5050965;28;20392;-74
2023/04/30 10:45:57;;;;;;;9.05;4.22;;;17.70;19.30;;;;;;5053117;28;20413;-74
2023/04/30 10:48:24;;;;;;;8.10;4.33;;;17.70;17.90;;;;;;5053598;28;20462;-74
2023/04/30 10:50:58;;;;;;;6.68;4.85;;;17.60;19.10;;;;;;5053506;28;20467;-73
2023/04/30 10:53:27;;;;;;;5.73;3.87;;;17.40;18.80;;;;;;5054885;28;20798;-75
2023/04/30 10:55:56;;;;;;;4.82;3.70;;;17.30;19.30;;;;;;5052179;28;20370;-76
2023/04/30 10:58:29;;;;;;;9.13;5.30;;;17.20;19.10;;;;;;5051196;28;20390;-75
2023/04/30 11:01:14;;;;;;;8.02;4.72;;;17.30;20.00;;;;;;5050385;28;20382;-75
2023/04/30 11:03:41;;;;;;;7.00;4.10;;;17.50;18.80;;;;;;5032764;28;20403;-76
2023/04/30 11:06:14;;;;;;;5.93;3.60;;;17.40;18.90;;;;;;5050407;28;20451;-76
2023/04/30 11:08:44;;;;;;;5.40;3.53;;;17.50;18.40;;;;;;5050725;28;20377;-75
2023/04/30 11:11:10;;;;;;;4.30;3.20;;;17.50;18.00;;;;;;5032671;28;20404;-77
2023/04/30 11:13:47;;;;;;;4.65;3.40;;;17.60;17.50;;;;;;5050867;28;20527;-75
2023/04/30 11:16:15;;;;;;;6.00;3.70;;;17.60;18.20;;;;;;5051028;28;20393;-77
2023/04/30 11:18:45;;;;;;;6.50;4.70;;;17.60;17.50;;;;;;5036362;28;20409;-75
2023/04/30 11:21:11;;;;;;;7.05;4.32;;;17.70;18.30;;;;;;5054060;28;20386;-76
2023/04/30 11:23:41;;;;;;;5.50;4.10;;;17.90;16.80;;;;;;5054711;28;20873;-75
2023/04/30 11:26:07;;;;;;;5.03;3.92;;;18.00;16.40;;;;;;5054423;28;20463;-74
2023/04/30 11:28:36;;;;;;;7.53;3.63;;;18.20;17.80;;;;;;5054226;28;20894;-75
2023/04/30 11:31:02;;;;;;;5.80;3.38;;;18.40;16.90;;;;;;5054132;28;20866;-75
2023/04/30 11:33:30;;;;;;;4.68;3.10;;;18.80;15.40;;;;;;5054777;28;20381;-74
2023/04/30 11:35:58;;;;;;;4.13;2.60;;;18.90;14.80;;;;;;5054601;28;20476;-75
2023/04/30 11:38:28;;;;;;;3.70;2.22;;;18.90;13.00;;;;;;5055343;28;20758;-76
2023/04/30 11:40:59;;;;;;;2.45;2.17;;;18.80;14.20;;;;;;5036690;28;20405;-74
2023/04/30 11:43:26;;;;;;;3.30;2.67;;;18.80;13.40;;;;;;5055232;28;20389;-76
2023/04/30 11:46:03;;;;;;;3.30;2.50;;;18.70;14.30;;;;;;5054820;28;20778;-75
2023/04/30 11:48:36;;;;;;;2.58;2.30;;;18.50;14.00;;;;;;5055659;28;20397;-75
2023/04/30 11:51:25;;;;;;;2.83;2.47;;;18.40;14.60;;;;;;5036536;28;20440;-76
2023/04/30 11:53:52;;;;;;;5.07;3.10;;;18.60;13.80;;;;;;5034955;28;20393;-75
2023/04/30 11:56:22;;;;;;;2.80;2.35;;;18.80;14.40;;;;;;5054683;28;20420;-77
2023/04/30 11:58:50;;;;;;;3.00;2.70;;;19.00;13.60;;;;;;5054526;28;20385;-74
2023/04/30 12:01:16;;;;;;;5.10;3.67;;;19.20;13.80;;;;;;5055501;28;20439;-76
2023/04/30 12:03:47;;;;;;;2.97;2.40;;;19.20;13.80;;;;;;5058059;28;20381;-77
2023/04/30 12:06:23;;;;;;;6.97;2.92;;;18.90;13.00;;;;;;5055252;28;20766;-75
2023/04/30 12:08:52;;;;;;;3.67;3.00;;;18.70;14.60;;;;;;5040727;28;20409;-76
2023/04/30 12:11:23;;;;;;;3.97;3.50;;;18.80;14.30;;;;;;5054975;28;20462;-76
2023/04/30 12:14:04;;;;;;;6.97;3.33;;;19.00;14.30;;;;;;5054275;28;20382;-77
2023/04/30 12:16:49;;;;;;;2.83;2.63;;;19.30;14.30;;;;;;5054859;28;20379;-76
2023/04/30 12:19:16;;;;;;;2.92;2.63;;;19.40;13.10;;;;;;5053510;28;20386;-76
2023/04/30 12:21:45;;;;;;;5.43;3.08;;;19.40;12.90;;;;;;5035161;28;20390;-76
2023/04/30 12:24:11;;;;;;;5.27;3.60;;;19.40;13.70;;;;;;5053930;28;20385;-75
2023/04/30 12:26:38;;;;;;;4.78;3.40;;;19.30;14.20;;;;;;5036337;28;20423;-76
2023/04/30 12:29:24;;;;;;;3.40;2.80;;;19.20;13.50;;;;;;5053382;28;20382;-75
2023/04/30 12:31:51;;;;;;;3.13;2.65;;;19.20;13.60;;;;;;5034109;28;20447;-76
2023/04/30 12:34:17;;;;;;;5.13;3.30;;;19.20;13.10;;;;;;5054350;28;20932;-77
2023/04/30 12:36:43;;;;;;;3.20;2.90;;;19.50;13.20;;;;;;5035928;28;20412;-75
2023/04/30 12:39:16;;;;;;;5.00;3.00;;;19.70;12.70;;;;;;5053537;28;20467;-76
2023/04/30 12:41:46;;;;;;;3.45;2.63;;;19.70;12.10;;;;;;5036475;28;20472;-76